sensor_id;sensor_type;location;lat;lon;timestamp;pressure;altitude;pressure_sealevel;temperature;humidity
38630;BME280;24384;51.988;4.644;2023-04-03T00:02:19;103109.69;;;6.66;74.56
38630;BME280;24384;51.988;4.644;2023-04-03T00:04:45;103115.78;;;6.63;72.29
38630;BME280;24384;51.988;4.644;2023-04-03T00:07:10;103112.31;;;6.66;70.79
38630;BME280;24384;51.988;4.644;2023-04-03T00:09:37;103120.41;;;6.78;76.54
38630;BME280;24384;51.988;4.644;2023-04-03T00:12:02;103117.81;;;6.79;74.68
38630;BME280;24384;51.988;4.644;2023-04-03T00:14:27;103110.69;;;6.71;72.16
38630;BME280;24384;51.988;4.644;2023-04-03T00:16:53;103121.03;;;6.63;70.59
38630;BME280;24384;51.988;4.644;2023-04-03T00:19:18;103120.34;;;6.75;75.70
38630;BME280;24384;51.988;4.644;2023-04-03T00:21:43;103116.81;;;6.71;71.66
38630;BME280;24384;51.988;4.644;2023-04-03T00:24:08;103112.31;;;6.66;72.15
38630;BME280;24384;51.988;4.644;2023-04-03T00:26:34;103124.63;;;6.70;71.35
38630;BME280;24384;51.988;4.644;2023-04-03T00:28:59;103115.94;;;6.71;72.57
38630;BME280;24384;51.988;4.644;2023-04-03T00:31:24;103121.09;;;6.66;72.81
38630;BME280;24384;51.988;4.644;2023-04-03T00:33:50;103127.28;;;6.71;73.49
38630;BME280;24384;51.988;4.644;2023-04-03T00:36:15;103123.81;;;6.72;73.35
38630;BME280;24384;51.988;4.644;2023-04-03T00:38:40;103126.97;;;6.56;71.40
38630;BME280;24384;51.988;4.644;2023-04-03T00:41:06;103125.44;;;6.67;74.96
38630;BME280;24384;51.988;4.644;2023-04-03T00:43:31;103124.34;;;6.54;71.52
38630;BME280;24384;51.988;4.644;2023-04-03T00:45:57;103128.03;;;6.66;76.09
38630;BME280;24384;51.988;4.644;2023-04-03T00:48:27;103127.25;;;6.70;77.00
38630;BME280;24384;51.988;4.644;2023-04-03T00:50:53;103127.03;;;6.59;72.33
38630;BME280;24384;51.988;4.644;2023-04-03T00:53:20;103128.56;;;6.48;71.57
38630;BME280;24384;51.988;4.644;2023-04-03T00:55:47;103124.28;;;6.51;72.76
38630;BME280;24384;51.988;4.644;2023-04-03T00:58:15;103122.63;;;6.56;75.18
38630;BME280;24384;51.988;4.644;2023-04-03T01:00:43;103127.59;;;6.44;69.66
38630;BME280;24384;51.988;4.644;2023-04-03T01:03:11;103134.63;;;6.45;70.11
38630;BME280;24384;51.988;4.644;2023-04-03T01:05:36;103137.25;;;6.45;74.53
38630;BME280;24384;51.988;4.644;2023-04-03T01:08:02;103138.09;;;6.44;75.08
38630;BME280;24384;51.988;4.644;2023-04-03T01:10:27;103143.97;;;6.32;73.16
38630;BME280;24384;51.988;4.644;2023-04-03T01:12:53;103136.69;;;6.19;72.35
38630;BME280;24384;51.988;4.644;2023-04-03T01:15:23;103139.19;;;6.13;71.71
38630;BME280;24384;51.988;4.644;2023-04-03T01:17:52;103145.75;;;5.95;71.25
38630;BME280;24384;51.988;4.644;2023-04-03T01:22:53;103138.66;;;5.91;74.18
38630;BME280;24384;51.988;4.644;2023-04-03T01:25:22;103143.00;;;5.89;73.09
38630;BME280;24384;51.988;4.644;2023-04-03T01:27:48;103142.34;;;5.99;77.77
38630;BME280;24384;51.988;4.644;2023-04-03T01:30:14;103138.72;;;5.94;75.33
38630;BME280;24384;51.988;4.644;2023-04-03T01:32:41;103143.00;;;5.89;74.05
38630;BME280;24384;51.988;4.644;2023-04-03T01:35:07;103139.22;;;5.78;71.27
38630;BME280;24384;51.988;4.644;2023-04-03T01:37:33;103146.06;;;5.72;73.66
38630;BME280;24384;51.988;4.644;2023-04-03T01:39:58;103140.16;;;5.80;76.93
38630;BME280;24384;51.988;4.644;2023-04-03T01:42:23;103150.28;;;5.66;71.54
38630;BME280;24384;51.988;4.644;2023-04-03T01:44:48;103138.19;;;5.71;74.00
38630;BME280;24384;51.988;4.644;2023-04-03T01:47:13;103144.94;;;5.61;72.90
38630;BME280;24384;51.988;4.644;2023-04-03T01:49:39;103141.41;;;5.61;73.55
38630;BME280;24384;51.988;4.644;2023-04-03T01:52:04;103146.47;;;5.53;73.88
38630;BME280;24384;51.988;4.644;2023-04-03T01:54:29;103155.72;;;5.38;73.10
38630;BME280;24384;51.988;4.644;2023-04-03T01:56:54;103150.78;;;5.51;72.94
38630;BME280;24384;51.988;4.644;2023-04-03T01:59:19;103147.19;;;5.46;75.77
38630;BME280;24384;51.988;4.644;2023-04-03T02:01:45;103150.06;;;5.56;71.45
38630;BME280;24384;51.988;4.644;2023-04-03T02:04:11;103144.66;;;5.49;70.91
38630;BME280;24384;51.988;4.644;2023-04-03T02:06:36;103152.31;;;5.41;73.65
38630;BME280;24384;51.988;4.644;2023-04-03T02:09:01;103148.97;;;5.48;74.57
38630;BME280;24384;51.988;4.644;2023-04-03T02:11:26;103162.81;;;5.43;72.41
38630;BME280;24384;51.988;4.644;2023-04-03T02:13:52;103159.44;;;5.48;73.68
38630;BME280;24384;51.988;4.644;2023-04-03T02:16:17;103169.88;;;5.47;72.08
38630;BME280;24384;51.988;4.644;2023-04-03T02:18:42;103168.13;;;5.46;73.41
38630;BME280;24384;51.988;4.644;2023-04-03T02:21:07;103161.06;;;5.43;71.87
38630;BME280;24384;51.988;4.644;2023-04-03T02:23:34;103164.47;;;5.41;72.77
38630;BME280;24384;51.988;4.644;2023-04-03T02:26:09;103169.41;;;5.28;74.33
38630;BME280;24384;51.988;4.644;2023-04-03T02:28:34;103165.88;;;5.26;72.15
38630;BME280;24384;51.988;4.644;2023-04-03T02:31:00;103171.97;;;5.25;71.94
38630;BME280;24384;51.988;4.644;2023-04-03T02:33:25;103178.88;;;5.23;71.91
38630;BME280;24384;51.988;4.644;2023-04-03T02:35:54;103178.88;;;5.23;72.46
38630;BME280;24384;51.988;4.644;2023-04-03T02:38:20;103178.13;;;5.27;72.51
38630;BME280;24384;51.988;4.644;2023-04-03T02:40:45;103182.09;;;5.13;71.50
38630;BME280;24384;51.988;4.644;2023-04-03T02:43:10;103176.00;;;5.14;73.42
38630;BME280;24384;51.988;4.644;2023-04-03T02:45:36;103175.75;;;5.05;74.14
38630;BME280;24384;51.988;4.644;2023-04-03T02:48:01;103182.63;;;5.01;73.20
38630;BME280;24384;51.988;4.644;2023-04-03T02:50:26;103184.47;;;5.04;73.87
38630;BME280;24384;51.988;4.644;2023-04-03T02:52:51;103184.09;;;4.90;73.30
38630;BME280;24384;51.988;4.644;2023-04-03T02:55:16;103187.50;;;4.87;74.34
38630;BME280;24384;51.988;4.644;2023-04-03T02:57:42;103181.16;;;4.79;73.56
38630;BME280;24384;51.988;4.644;2023-04-03T03:00:07;103184.34;;;4.69;75.36
38630;BME280;24384;51.988;4.644;2023-04-03T03:02:33;103180.91;;;4.70;74.24
38630;BME280;24384;51.988;4.644;2023-04-03T03:04:59;103179.69;;;4.58;75.49
38630;BME280;24384;51.988;4.644;2023-04-03T03:07:24;103180.38;;;4.51;75.09
38630;BME280;24384;51.988;4.644;2023-04-03T03:09:49;103188.56;;;4.63;76.78
38630;BME280;24384;51.988;4.644;2023-04-03T03:12:15;103182.06;;;4.51;77.18
38630;BME280;24384;51.988;4.644;2023-04-03T03:14:41;103184.44;;;4.43;74.40
38630;BME280;24384;51.988;4.644;2023-04-03T03:17:07;103180.81;;;4.38;76.52
38630;BME280;24384;51.988;4.644;2023-04-03T03:19:32;103190.22;;;4.31;77.75
38630;BME280;24384;51.988;4.644;2023-04-03T03:21:58;103187.66;;;4.33;79.96
38630;BME280;24384;51.988;4.644;2023-04-03T03:24:23;103196.50;;;4.38;77.16
38630;BME280;24384;51.988;4.644;2023-04-03T03:26:48;103189.66;;;4.12;75.70
38630;BME280;24384;51.988;4.644;2023-04-03T03:29:13;103187.38;;;4.23;80.47
38630;BME280;24384;51.988;4.644;2023-04-03T03:31:39;103197.69;;;4.19;80.66
38630;BME280;24384;51.988;4.644;2023-04-03T03:34:04;103188.69;;;4.10;78.15
38630;BME280;24384;51.988;4.644;2023-04-03T03:36:29;103193.72;;;4.04;78.06
38630;BME280;24384;51.988;4.644;2023-04-03T03:38:55;103200.53;;;3.99;78.62
38630;BME280;24384;51.988;4.644;2023-04-03T03:41:20;103204.03;;;4.00;78.29
38630;BME280;24384;51.988;4.644;2023-04-03T03:43:46;103197.03;;;3.99;78.28
38630;BME280;24384;51.988;4.644;2023-04-03T03:46:11;103201.25;;;3.95;81.17
38630;BME280;24384;51.988;4.644;2023-04-03T03:48:36;103206.47;;;3.95;80.40
38630;BME280;24384;51.988;4.644;2023-04-03T03:51:01;103211.41;;;3.86;80.98
38630;BME280;24384;51.988;4.644;2023-04-03T03:53:27;103208.69;;;3.83;81.00
38630;BME280;24384;51.988;4.644;2023-04-03T03:55:52;103216.44;;;3.80;80.73
38630;BME280;24384;51.988;4.644;2023-04-03T03:58:17;103214.47;;;3.72;79.47
38630;BME280;24384;51.988;4.644;2023-04-03T04:00:42;103214.72;;;3.80;80.13
38630;BME280;24384;51.988;4.644;2023-04-03T04:03:07;103206.91;;;3.80;79.94
38630;BME280;24384;51.988;4.644;2023-04-03T04:05:33;103215.75;;;3.85;83.42
38630;BME280;24384;51.988;4.644;2023-04-03T04:07:58;103214.16;;;3.90;83.11
38630;BME280;24384;51.988;4.644;2023-04-03T04:10:23;103198.66;;;3.95;81.92
38630;BME280;24384;51.988;4.644;2023-04-03T04:12:48;103196.19;;;4.00;83.12
38630;BME280;24384;51.988;4.644;2023-04-03T04:15:16;103198.06;;;4.04;83.78
38630;BME280;24384;51.988;4.644;2023-04-03T04:17:41;103213.16;;;4.12;79.98
38630;BME280;24384;51.988;4.644;2023-04-03T04:20:06;103206.94;;;4.09;77.90
38630;BME280;24384;51.988;4.644;2023-04-03T04:22:32;103211.91;;;4.01;80.21
38630;BME280;24384;51.988;4.644;2023-04-03T04:24:57;103213.44;;;3.94;80.17
38630;BME280;24384;51.988;4.644;2023-04-03T04:27:22;103217.63;;;3.89;81.58
38630;BME280;24384;51.988;4.644;2023-04-03T04:29:47;103217.75;;;3.92;80.89
38630;BME280;24384;51.988;4.644;2023-04-03T04:32:12;103213.44;;;3.94;81.34
38630;BME280;24384;51.988;4.644;2023-04-03T04:34:38;103215.38;;;4.00;82.33
38630;BME280;24384;51.988;4.644;2023-04-03T04:37:03;103219.19;;;3.84;80.79
38630;BME280;24384;51.988;4.644;2023-04-03T04:39:28;103213.38;;;3.93;83.09
38630;BME280;24384;51.988;4.644;2023-04-03T04:41:53;103220.03;;;3.83;80.78
38630;BME280;24384;51.988;4.644;2023-04-03T04:44:18;103217.34;;;3.80;81.45
38630;BME280;24384;51.988;4.644;2023-04-03T04:46:45;103219.19;;;3.84;80.05
38630;BME280;24384;51.988;4.644;2023-04-03T04:49:10;103225.16;;;3.80;80.18
38630;BME280;24384;51.988;4.644;2023-04-03T04:51:35;103221.94;;;3.62;80.78
38630;BME280;24384;51.988;4.644;2023-04-03T04:54:00;103228.03;;;3.62;80.05
38630;BME280;24384;51.988;4.644;2023-04-03T04:56:26;103236.44;;;3.53;81.06
38630;BME280;24384;51.988;4.644;2023-04-03T04:58:51;103233.03;;;3.56;78.80
38630;BME280;24384;51.988;4.644;2023-04-03T05:01:16;103238.94;;;3.50;80.08
38630;BME280;24384;51.988;4.644;2023-04-03T05:03:41;103231.53;;;3.37;80.13
38630;BME280;24384;51.988;4.644;2023-04-03T05:06:06;103235.34;;;3.22;79.14
38630;BME280;24384;51.988;4.644;2023-04-03T05:08:32;103251.66;;;3.41;81.00
38630;BME280;24384;51.988;4.644;2023-04-03T05:10:57;103248.94;;;3.38;81.06
38630;BME280;24384;51.988;4.644;2023-04-03T05:13:22;103244.50;;;3.35;81.92
38630;BME280;24384;51.988;4.644;2023-04-03T05:15:47;103242.84;;;3.37;81.10
38630;BME280;24384;51.988;4.644;2023-04-03T05:18:13;103249.25;;;3.21;80.24
38630;BME280;24384;51.988;4.644;2023-04-03T05:20:38;103245.56;;;3.16;81.28
38630;BME280;24384;51.988;4.644;2023-04-03T05:23:03;103248.59;;;3.29;82.75
38630;BME280;24384;51.988;4.644;2023-04-03T05:25:28;103259.78;;;3.25;80.71
38630;BME280;24384;51.988;4.644;2023-04-03T05:27:53;103255.50;;;3.27;84.14
38630;BME280;24384;51.988;4.644;2023-04-03T05:30:19;103256.81;;;3.39;85.16
38630;BME280;24384;51.988;4.644;2023-04-03T05:32:44;103262.84;;;3.37;84.19
38630;BME280;24384;51.988;4.644;2023-04-03T05:35:10;103266.47;;;3.42;83.78
38630;BME280;24384;51.988;4.644;2023-04-03T05:37:37;103264.09;;;3.48;82.71
38630;BME280;24384;51.988;4.644;2023-04-03T05:40:06;103263.03;;;3.43;80.99
38630;BME280;24384;51.988;4.644;2023-04-03T05:42:31;103266.47;;;3.66;82.98
38630;BME280;24384;51.988;4.644;2023-04-03T05:44:57;103268.38;;;3.72;81.00
38630;BME280;24384;51.988;4.644;2023-04-03T05:47:22;103267.66;;;3.76;82.51
38630;BME280;24384;51.988;4.644;2023-04-03T05:49:47;103255.84;;;3.87;82.36
38630;BME280;24384;51.988;4.644;2023-04-03T05:52:28;103258.72;;;3.95;79.85
38630;BME280;24384;51.988;4.644;2023-04-03T05:54:55;103261.31;;;3.95;80.51
38630;BME280;24384;51.988;4.644;2023-04-03T05:57:20;103270.97;;;3.98;78.96
38630;BME280;24384;51.988;4.644;2023-04-03T05:59:46;103266.78;;;4.03;78.56
38630;BME280;24384;51.988;4.644;2023-04-03T06:02:12;103265.13;;;4.05;79.07
38630;BME280;24384;51.988;4.644;2023-04-03T06:04:38;103268.31;;;3.96;78.44
38630;BME280;24384;51.988;4.644;2023-04-03T06:07:03;103268.38;;;3.98;78.92
38630;BME280;24384;51.988;4.644;2023-04-03T06:09:29;103274.09;;;4.13;77.90
38630;BME280;24384;51.988;4.644;2023-04-03T06:11:56;103271.59;;;4.16;77.74
38630;BME280;24384;51.988;4.644;2023-04-03T06:14:24;103280.31;;;4.17;76.56
38630;BME280;24384;51.988;4.644;2023-04-03T06:16:49;103273.06;;;4.35;77.16
38630;BME280;24384;51.988;4.644;2023-04-03T06:19:15;103271.59;;;4.43;77.57
38630;BME280;24384;51.988;4.644;2023-04-03T06:21:41;103281.09;;;4.41;76.73
38630;BME280;24384;51.988;4.644;2023-04-03T06:24:06;103281.38;;;4.51;75.88
38630;BME280;24384;51.988;4.644;2023-04-03T06:26:32;103286.00;;;4.59;75.53
38630;BME280;24384;51.988;4.644;2023-04-03T06:28:58;103287.09;;;4.66;74.76
38630;BME280;24384;51.988;4.644;2023-04-03T06:31:23;103283.34;;;4.58;75.32
38630;BME280;24384;51.988;4.644;2023-04-03T06:33:51;103286.00;;;4.59;74.42
38630;BME280;24384;51.988;4.644;2023-04-03T06:36:17;103294.69;;;4.58;75.27
38630;BME280;24384;51.988;4.644;2023-04-03T06:38:44;103287.81;;;4.60;74.41
38630;BME280;24384;51.988;4.644;2023-04-03T06:41:10;103286.94;;;4.61;74.22
38630;BME280;24384;51.988;4.644;2023-04-03T06:43:35;103287.00;;;4.63;75.42
38630;BME280;24384;51.988;4.644;2023-04-03T06:46:01;103290.13;;;4.51;74.37
38630;BME280;24384;51.988;4.644;2023-04-03T06:48:26;103296.91;;;4.46;74.28
38630;BME280;24384;51.988;4.644;2023-04-03T06:50:52;103291.19;;;4.58;75.15
38630;BME280;24384;51.988;4.644;2023-04-03T06:53:17;103296.72;;;4.67;74.90
38630;BME280;24384;51.988;4.644;2023-04-03T06:55:43;103303.97;;;4.76;74.02
38630;BME280;24384;51.988;4.644;2023-04-03T06:58:08;103297.13;;;4.81;74.56
38630;BME280;24384;51.988;4.644;2023-04-03T07:00:34;103303.03;;;4.75;73.56
38630;BME280;24384;51.988;4.644;2023-04-03T07:02:59;103299.09;;;4.88;73.72
38630;BME280;24384;51.988;4.644;2023-04-03T07:05:25;103302.63;;;4.90;74.87
38630;BME280;24384;51.988;4.644;2023-04-03T07:07:51;103311.63;;;5.00;73.39
38630;BME280;24384;51.988;4.644;2023-04-03T07:10:16;103310.09;;;5.07;74.02
38630;BME280;24384;51.988;4.644;2023-04-03T07:12:42;103310.28;;;5.13;73.14
38630;BME280;24384;51.988;4.644;2023-04-03T07:15:07;103319.78;;;5.11;74.50
38630;BME280;24384;51.988;4.644;2023-04-03T07:17:33;103320.56;;;5.07;73.02
38630;BME280;24384;51.988;4.644;2023-04-03T07:19:59;103312.78;;;5.08;73.88
38630;BME280;24384;51.988;4.644;2023-04-03T07:22:24;103318.25;;;5.17;73.45
38630;BME280;24384;51.988;4.644;2023-04-03T07:24:49;103313.22;;;5.24;72.87
38630;BME280;24384;51.988;4.644;2023-04-03T07:27:14;103315.13;;;5.31;73.74
38630;BME280;24384;51.988;4.644;2023-04-03T07:29:40;103326.53;;;5.33;74.36
38630;BME280;24384;51.988;4.644;2023-04-03T07:32:05;103328.88;;;5.54;71.58
38630;BME280;24384;51.988;4.644;2023-04-03T07:34:31;103329.56;;;5.48;72.36
38630;BME280;24384;51.988;4.644;2023-04-03T07:36:57;103330.66;;;5.55;71.44
38630;BME280;24384;51.988;4.644;2023-04-03T07:39:23;103322.06;;;5.61;73.29
38630;BME280;24384;51.988;4.644;2023-04-03T07:41:48;103327.50;;;5.68;72.39
38630;BME280;24384;51.988;4.644;2023-04-03T07:44:13;103330.00;;;5.64;70.35
38630;BME280;24384;51.988;4.644;2023-04-03T07:46:38;103333.69;;;5.70;71.85
38630;BME280;24384;51.988;4.644;2023-04-03T07:49:03;103338.06;;;5.71;73.80
38630;BME280;24384;51.988;4.644;2023-04-03T07:51:29;103343.72;;;5.87;72.72
38630;BME280;24384;51.988;4.644;2023-04-03T07:53:55;103342.75;;;5.83;69.42
38630;BME280;24384;51.988;4.644;2023-04-03T07:56:20;103343.22;;;6.00;70.53
38630;BME280;24384;51.988;4.644;2023-04-03T07:58:45;103348.91;;;6.17;69.28
38630;BME280;24384;51.988;4.644;2023-04-03T08:01:11;103349.22;;;6.30;72.13
38630;BME280;24384;51.988;4.644;2023-04-03T08:03:36;103353.16;;;6.49;70.74
38630;BME280;24384;51.988;4.644;2023-04-03T08:06:03;103350.75;;;6.58;68.19
38630;BME280;24384;51.988;4.644;2023-04-03T08:08:29;103362.63;;;6.42;66.16
38630;BME280;24384;51.988;4.644;2023-04-03T08:10:55;103352.69;;;6.28;64.46
38630;BME280;24384;51.988;4.644;2023-04-03T08:13:20;103350.72;;;6.56;68.42
38630;BME280;24384;51.988;4.644;2023-04-03T08:15:46;103353.03;;;6.80;66.87
38630;BME280;24384;51.988;4.644;2023-04-03T08:18:12;103346.06;;;6.81;66.44
38630;BME280;24384;51.988;4.644;2023-04-03T08:20:38;103349.09;;;6.99;70.93
38630;BME280;24384;51.988;4.644;2023-04-03T08:23:03;103347.53;;;7.08;71.45
38630;BME280;24384;51.988;4.644;2023-04-03T08:25:29;103356.19;;;7.04;68.61
38630;BME280;24384;51.988;4.644;2023-04-03T08:27:54;103353.69;;;7.10;66.25
38630;BME280;24384;51.988;4.644;2023-04-03T08:30:20;103348.50;;;7.54;65.60
38630;BME280;24384;51.988;4.644;2023-04-03T08:32:45;103364.47;;;7.65;68.63
38630;BME280;24384;51.988;4.644;2023-04-03T08:35:11;103362.75;;;7.68;63.57
38630;BME280;24384;51.988;4.644;2023-04-03T08:37:37;103364.63;;;7.74;66.56
38630;BME280;24384;51.988;4.644;2023-04-03T08:40:03;103352.69;;;7.92;66.23
38630;BME280;24384;51.988;4.644;2023-04-03T08:47:36;103362.66;;;8.10;61.33
38630;BME280;24384;51.988;4.644;2023-04-03T08:50:07;103358.41;;;8.18;63.41
38630;BME280;24384;51.988;4.644;2023-04-03T08:52:37;103361.78;;;8.11;59.98
38630;BME280;24384;51.988;4.644;2023-04-03T08:55:05;103360.19;;;8.19;61.64
38630;BME280;24384;51.988;4.644;2023-04-03T08:57:38;103358.16;;;8.54;61.94
38630;BME280;24384;51.988;4.644;2023-04-03T09:02:41;103352.88;;;9.16;56.11
38630;BME280;24384;51.988;4.644;2023-04-03T09:05:17;103351.81;;;9.00;61.16
38630;BME280;24384;51.988;4.644;2023-04-03T09:07:47;103348.41;;;9.07;59.01
38630;BME280;24384;51.988;4.644;2023-04-03T09:10:15;103350.16;;;9.08;57.08
38630;BME280;24384;51.988;4.644;2023-04-03T09:12:57;103354.78;;;9.27;57.30
38630;BME280;24384;51.988;4.644;2023-04-03T09:15:24;103348.53;;;9.16;54.28
38630;BME280;24384;51.988;4.644;2023-04-03T09:17:53;103352.31;;;9.40;49.95
38630;BME280;24384;51.988;4.644;2023-04-03T09:22:59;103343.00;;;9.71;47.74
38630;BME280;24384;51.988;4.644;2023-04-03T09:25:31;103347.34;;;9.67;47.63
38630;BME280;24384;51.988;4.644;2023-04-03T09:27:58;103350.06;;;9.75;51.05
38630;BME280;24384;51.988;4.644;2023-04-03T09:30:25;103361.59;;;9.85;48.72
38630;BME280;24384;51.988;4.644;2023-04-03T09:32:51;103354.72;;;9.99;49.86
38630;BME280;24384;51.988;4.644;2023-04-03T09:35:24;103348.53;;;9.97;46.23
38630;BME280;24384;51.988;4.644;2023-04-03T09:37:51;103352.22;;;10.15;50.45
38630;BME280;24384;51.988;4.644;2023-04-03T09:42:57;103341.00;;;10.37;48.54
38630;BME280;24384;51.988;4.644;2023-04-03T09:45:24;103325.41;;;10.71;51.80
38630;BME280;24384;51.988;4.644;2023-04-03T09:48:03;103328.94;;;10.77;42.66
38630;BME280;24384;51.988;4.644;2023-04-03T09:50:30;103319.34;;;10.89;50.71
38630;BME280;24384;51.988;4.644;2023-04-03T09:52:55;103315.72;;;10.72;48.33
38630;BME280;24384;51.988;4.644;2023-04-03T09:55:21;103313.91;;;10.60;48.20
38630;BME280;24384;51.988;4.644;2023-04-03T09:57:52;103313.00;;;10.60;44.94
38630;BME280;24384;51.988;4.644;2023-04-03T10:00:21;103320.22;;;10.88;50.88
38630;BME280;24384;51.988;4.644;2023-04-03T10:02:49;103299.16;;;11.01;47.70
38630;BME280;24384;51.988;4.644;2023-04-03T10:10:32;103307.13;;;11.16;45.07
38630;BME280;24384;51.988;4.644;2023-04-03T10:13:05;103302.78;;;11.40;45.67
38630;BME280;24384;51.988;4.644;2023-04-03T10:15:33;103299.34;;;11.64;47.02
38630;BME280;24384;51.988;4.644;2023-04-03T10:18:02;103297.56;;;11.64;43.66
38630;BME280;24384;51.988;4.644;2023-04-03T10:25:32;103293.22;;;11.90;40.90
38630;BME280;24384;51.988;4.644;2023-04-03T10:45:31;103268.19;;;13.22;40.72
38630;BME280;24384;51.988;4.644;2023-04-03T10:48:11;103271.81;;;13.10;37.91
38630;BME280;24384;51.988;4.644;2023-04-03T10:55:38;103270.75;;;13.43;36.76
38630;BME280;24384;51.988;4.644;2023-04-03T10:58:16;103265.28;;;13.68;34.67
38630;BME280;24384;51.988;4.644;2023-04-03T11:00:45;103271.69;;;13.39;34.83
38630;BME280;24384;51.988;4.644;2023-04-03T11:03:13;103265.69;;;12.93;34.76
38630;BME280;24384;51.988;4.644;2023-04-03T11:10:42;103268.28;;;13.06;33.76
38630;BME280;24384;51.988;4.644;2023-04-03T11:13:18;103268.94;;;13.53;34.74
38630;BME280;24384;51.988;4.644;2023-04-03T11:15:46;103264.28;;;13.82;38.32
38630;BME280;24384;51.988;4.644;2023-04-03T11:21:42;103259.38;;;14.35;31.62
38630;BME280;24384;51.988;4.644;2023-04-03T11:23:49;103259.41;;;14.31;29.40
38630;BME280;24384;51.988;4.644;2023-04-03T11:28:41;103238.41;;;14.91;26.89
38630;BME280;24384;51.988;4.644;2023-04-03T11:36:11;103247.50;;;14.71;29.41
38630;BME280;24384;51.988;4.644;2023-04-03T11:38:38;103233.47;;;14.58;28.70
38630;BME280;24384;51.988;4.644;2023-04-03T11:41:08;103226.56;;;15.15;30.91
38630;BME280;24384;51.988;4.644;2023-04-03T11:43:33;103226.03;;;14.90;31.34
38630;BME280;24384;51.988;4.644;2023-04-03T11:46:05;103215.97;;;15.12;25.76
38630;BME280;24384;51.988;4.644;2023-04-03T11:53:38;103194.91;;;16.08;34.29
38630;BME280;24384;51.988;4.644;2023-04-03T11:59:15;103188.03;;;15.95;26.03
38630;BME280;24384;51.988;4.644;2023-04-03T12:01:42;103196.81;;;16.00;25.14
38630;BME280;24384;51.988;4.644;2023-04-03T12:04:10;103203.81;;;15.54;25.59
38630;BME280;24384;51.988;4.644;2023-04-03T12:09:04;103200.84;;;17.09;26.69
38630;BME280;24384;51.988;4.644;2023-04-03T12:11:47;103183.56;;;17.61;22.21
38630;BME280;24384;51.988;4.644;2023-04-03T12:14:15;103189.47;;;18.08;25.59
38630;BME280;24384;51.988;4.644;2023-04-03T12:16:42;103182.97;;;18.80;25.70
38630;BME280;24384;51.988;4.644;2023-04-03T12:19:29;103174.63;;;19.19;23.54
38630;BME280;24384;51.988;4.644;2023-04-03T12:24:28;103173.53;;;20.29;21.89
38630;BME280;24384;51.988;4.644;2023-04-03T12:39:41;103174.16;;;21.27;20.39
38630;BME280;24384;51.988;4.644;2023-04-03T12:45:10;103166.66;;;21.78;18.92
38630;BME280;24384;51.988;4.644;2023-04-03T12:47:34;103151.97;;;21.66;21.01
38630;BME280;24384;51.988;4.644;2023-04-03T12:50:01;103154.31;;;21.31;19.76
38630;BME280;24384;51.988;4.644;2023-04-03T12:52:30;103159.09;;;21.02;21.70
38630;BME280;24384;51.988;4.644;2023-04-03T12:54:57;103149.56;;;21.60;19.60
38630;BME280;24384;51.988;4.644;2023-04-03T12:57:24;103146.69;;;22.25;20.33
38630;BME280;24384;51.988;4.644;2023-04-03T12:59:50;103133.69;;;22.53;18.66
38630;BME280;24384;51.988;4.644;2023-04-03T13:02:25;103132.75;;;21.96;16.79
38630;BME280;24384;51.988;4.644;2023-04-03T13:04:51;103133.31;;;21.84;19.27
38630;BME280;24384;51.988;4.644;2023-04-03T13:07:21;103142.94;;;21.04;20.87
38630;BME280;24384;51.988;4.644;2023-04-03T13:09:58;103143.00;;;20.80;21.29
38630;BME280;24384;51.988;4.644;2023-04-03T13:12:24;103142.13;;;20.80;20.11
38630;BME280;24384;51.988;4.644;2023-04-03T13:14:53;103132.16;;;21.05;20.47
38630;BME280;24384;51.988;4.644;2023-04-03T13:17:19;103126.47;;;23.11;20.79
38630;BME280;24384;51.988;4.644;2023-04-03T13:19:45;103126.75;;;22.86;17.13
38630;BME280;24384;51.988;4.644;2023-04-03T13:24:38;103110.69;;;25.18;17.26
38630;BME280;24384;51.988;4.644;2023-04-03T13:27:04;103105.56;;;26.59;17.89
38630;BME280;24384;51.988;4.644;2023-04-03T13:29:33;103113.94;;;27.24;17.72
38630;BME280;24384;51.988;4.644;2023-04-03T13:31:59;103112.72;;;25.45;16.58
38630;BME280;24384;51.988;4.644;2023-04-03T13:34:26;103110.97;;;24.67;15.12
38630;BME280;24384;51.988;4.644;2023-04-03T13:39:29;103115.97;;;26.80;16.94
38630;BME280;24384;51.988;4.644;2023-04-03T13:41:56;103115.16;;;27.32;15.70
38630;BME280;24384;51.988;4.644;2023-04-03T13:46:54;103120.63;;;25.34;17.51
38630;BME280;24384;51.988;4.644;2023-04-03T13:51:45;103109.06;;;25.46;17.33
38630;BME280;24384;51.988;4.644;2023-04-03T13:54:16;103094.19;;;25.98;17.51
38630;BME280;24384;51.988;4.644;2023-04-03T13:56:42;103107.41;;;26.59;15.11
38630;BME280;24384;51.988;4.644;2023-04-03T14:01:47;103085.75;;;27.26;13.96
38630;BME280;24384;51.988;4.644;2023-04-03T14:06:38;103086.56;;;27.41;17.68
38630;BME280;24384;51.988;4.644;2023-04-03T14:09:04;103092.00;;;27.67;15.79
38630;BME280;24384;51.988;4.644;2023-04-03T14:11:29;103085.06;;;28.01;14.65
38630;BME280;24384;51.988;4.644;2023-04-03T14:13:56;103076.25;;;27.46;15.40
38630;BME280;24384;51.988;4.644;2023-04-03T14:16:23;103077.06;;;26.54;17.49
38630;BME280;24384;51.988;4.644;2023-04-03T14:18:50;103075.59;;;26.21;16.22
38630;BME280;24384;51.988;4.644;2023-04-03T14:21:17;103081.78;;;27.32;15.28
38630;BME280;24384;51.988;4.644;2023-04-03T14:23:42;103068.53;;;27.14;13.30
38630;BME280;24384;51.988;4.644;2023-04-03T14:26:11;103070.72;;;24.31;18.13
38630;BME280;24384;51.988;4.644;2023-04-03T14:28:37;103071.63;;;23.65;17.45
38630;BME280;24384;51.988;4.644;2023-04-03T14:31:05;103068.22;;;22.55;21.22
38630;BME280;24384;51.988;4.644;2023-04-03T14:33:30;103065.66;;;22.34;20.92
38630;BME280;24384;51.988;4.644;2023-04-03T14:35:59;103066.88;;;21.25;18.58
38630;BME280;24384;51.988;4.644;2023-04-03T14:38:26;103078.03;;;20.50;20.50
38630;BME280;24384;51.988;4.644;2023-04-03T14:40:52;103064.06;;;21.51;24.67
38630;BME280;24384;51.988;4.644;2023-04-03T14:43:18;103060.72;;;21.23;20.18